createdAt,value
2019-02-14T00:00:13.976Z,-0.10
2019-02-14T00:02:42.519Z,0.20
2019-02-14T00:05:16.463Z,0.20
2019-02-14T00:07:41.428Z,0.00
2019-02-14T00:10:10.431Z,-0.20
2019-02-14T00:12:38.973Z,-0.30
2019-02-14T00:15:12.492Z,-0.30
2019-02-14T00:17:41.038Z,-0.30
2019-02-14T00:20:10.345Z,-0.30
2019-02-14T00:22:38.889Z,-0.40
2019-02-14T00:25:07.545Z,-0.50
2019-02-14T00:27:36.147Z,-0.20
2019-02-14T00:30:06.533Z,0.20
2019-02-14T00:32:35.078Z,0.10
2019-02-14T00:35:04.067Z,-0.10
2019-02-14T00:37:32.639Z,-0.20
2019-02-14T00:40:01.187Z,-0.30
2019-02-14T00:42:29.762Z,-0.20
2019-02-14T00:44:58.231Z,-0.20
2019-02-14T00:47:26.802Z,-0.30
2019-02-14T00:49:55.334Z,-0.30
2019-02-14T00:52:23.914Z,-0.40
2019-02-14T00:54:52.456Z,-0.40
2019-02-14T00:57:21.021Z,-0.40
2019-02-14T00:59:49.491Z,-0.50
2019-02-14T01:02:18.358Z,-0.50
2019-02-14T01:04:46.894Z,-0.40
2019-02-14T01:07:15.392Z,-0.40
2019-02-14T01:09:43.929Z,-0.20
2019-02-14T01:12:12.901Z,-0.10
2019-02-14T01:14:41.519Z,-0.10
2019-02-14T01:17:10.092Z,-0.30
2019-02-14T01:19:38.634Z,-0.40
2019-02-14T01:22:07.286Z,-0.40
2019-02-14T01:24:35.834Z,-0.50
2019-02-14T01:27:04.477Z,-0.50
2019-02-14T01:29:33.022Z,-0.30
2019-02-14T01:32:01.666Z,-0.10
2019-02-14T01:34:30.587Z,-0.40
2019-02-14T01:36:59.157Z,-0.40
2019-02-14T01:39:27.708Z,-0.30
2019-02-14T01:41:56.290Z,-0.50
2019-02-14T01:44:24.834Z,-0.40
2019-02-14T01:46:53.377Z,-0.40
2019-02-14T01:49:21.957Z,-0.50
2019-02-14T01:51:50.563Z,-0.50
2019-02-14T01:54:19.066Z,-0.50
2019-02-14T01:56:47.615Z,-0.50
2019-02-14T01:59:16.191Z,-0.60
2019-02-14T02:01:44.742Z,-0.50
2019-02-14T02:04:13.317Z,-0.50
2019-02-14T02:06:41.863Z,-0.60
2019-02-14T02:09:10.502Z,-0.60
2019-02-14T02:11:39.046Z,-0.60
2019-02-14T02:14:07.616Z,-0.60
2019-02-14T02:16:36.165Z,-0.60
2019-02-14T02:19:05.079Z,-0.60
2019-02-14T02:21:33.691Z,-0.60
2019-02-14T02:24:02.265Z,-0.50
2019-02-14T02:26:30.807Z,-0.40
2019-02-14T02:28:59.814Z,-0.50
2019-02-14T02:31:28.283Z,-0.50
2019-02-14T02:33:56.856Z,-0.50
2019-02-14T02:36:25.403Z,-0.50
2019-02-14T02:38:53.975Z,-0.60
2019-02-14T02:41:22.528Z,-0.60
2019-02-14T02:43:51.090Z,-0.70
2019-02-14T02:46:19.629Z,-0.60
2019-02-14T02:48:48.170Z,-0.60
2019-02-14T02:51:16.738Z,-0.60
2019-02-14T02:53:45.285Z,-0.70
2019-02-14T02:56:13.926Z,-0.60
2019-02-14T02:58:42.405Z,-0.60
2019-02-14T03:01:10.978Z,-0.60
2019-02-14T03:03:39.447Z,-0.60
2019-02-14T03:06:10.404Z,-0.50
2019-02-14T03:08:38.215Z,-0.60
2019-02-14T03:11:06.794Z,-0.50
2019-02-14T03:13:35.338Z,-0.60
2019-02-14T03:16:03.910Z,-0.80
2019-02-14T03:18:32.453Z,-1.00
2019-02-14T03:21:00.949Z,-0.80
2019-02-14T03:23:29.489Z,-0.70
2019-02-14T03:25:57.977Z,-0.60
2019-02-14T03:28:26.450Z,-0.60
2019-02-14T03:30:55.023Z,-0.70
2019-02-14T03:33:23.575Z,-0.70
2019-02-14T03:35:52.157Z,-0.80
2019-02-14T03:38:20.698Z,-0.80
2019-02-14T03:40:49.198Z,-0.90
2019-02-14T03:43:17.747Z,-0.80
2019-02-14T03:45:46.326Z,-0.90
2019-02-14T03:48:14.866Z,-0.80
2019-02-14T03:50:44.487Z,-0.70
2019-02-14T03:53:13.405Z,-0.90
2019-02-14T03:55:42.020Z,-0.90
2019-02-14T03:58:10.595Z,-0.90
2019-02-14T04:00:39.142Z,-0.90
2019-02-14T04:03:07.719Z,-1.00
2019-02-14T04:05:36.274Z,-1.00
2019-02-14T04:08:04.843Z,-1.00
2019-02-14T04:10:33.391Z,-1.00
2019-02-14T04:13:01.963Z,-1.10
2019-02-14T04:15:30.512Z,-0.90
2019-02-14T04:17:59.085Z,-0.80
2019-02-14T04:20:27.633Z,-0.80
2019-02-14T04:22:56.478Z,-0.80
2019-02-14T04:25:25.018Z,-0.80
2019-02-14T04:27:53.594Z,-0.90
2019-02-14T04:30:22.143Z,-0.90
2019-02-14T04:32:50.714Z,-1.00
2019-02-14T04:35:19.254Z,-1.10
2019-02-14T04:37:47.759Z,-1.30
2019-02-14T04:40:16.302Z,-1.30
2019-02-14T04:42:44.807Z,-1.20
2019-02-14T04:45:13.834Z,-1.10
2019-02-14T04:47:43.150Z,-1.00
2019-02-14T04:50:12.280Z,-1.10
2019-02-14T04:52:40.828Z,-1.20
2019-02-14T04:55:11.290Z,-1.20
2019-02-14T04:57:42.454Z,-1.20
2019-02-14T05:00:15.362Z,-1.20
2019-02-14T05:02:43.968Z,-1.20
2019-02-14T05:05:12.607Z,-0.70
2019-02-14T05:07:41.167Z,-0.60
2019-02-14T05:10:11.175Z,-0.90
2019-02-14T05:12:39.794Z,-1.10
2019-02-14T05:15:10.290Z,-1.30
2019-02-14T05:17:38.906Z,-1.30
2019-02-14T05:20:09.887Z,-1.40
2019-02-14T05:22:38.798Z,-1.40
2019-02-14T05:25:08.723Z,-1.40
2019-02-14T05:27:37.267Z,-1.60
2019-02-14T05:30:14.163Z,-1.50
2019-02-14T05:32:42.712Z,-1.50
2019-02-14T05:35:11.355Z,-1.50
2019-02-14T05:37:39.902Z,-1.40
2019-02-14T05:40:10.643Z,-1.40
2019-02-14T05:42:39.522Z,-1.50
2019-02-14T05:45:14.628Z,-1.50
2019-02-14T05:47:43.176Z,-1.40
2019-02-14T05:50:15.572Z,-1.50
2019-02-14T05:52:44.127Z,-1.40
2019-02-14T05:55:13.263Z,-1.50
2019-02-14T05:57:41.829Z,-1.50
2019-02-14T06:00:18.642Z,-1.50
2019-02-14T06:02:47.134Z,-1.50
2019-02-14T06:05:16.006Z,-1.50
2019-02-14T06:07:44.591Z,-1.50
2019-02-14T06:10:13.282Z,-1.60
2019-02-14T06:12:41.855Z,-1.60
2019-02-14T06:15:12.403Z,-1.40
2019-02-14T06:17:41.051Z,-1.50
2019-02-14T06:20:10.923Z,-1.30
2019-02-14T06:22:39.758Z,-1.40
2019-02-14T06:25:09.942Z,-1.50
2019-02-14T06:27:38.867Z,-1.30
2019-02-14T06:30:12.918Z,-1.10
2019-02-14T06:32:41.762Z,-1.30
2019-02-14T06:35:11.355Z,-1.50
2019-02-14T06:37:39.924Z,-1.50
2019-02-14T06:40:10.906Z,-1.50
2019-02-14T06:42:39.552Z,-1.50
2019-02-14T06:45:11.203Z,-1.20
2019-02-14T06:47:39.770Z,-1.20
2019-02-14T06:50:09.254Z,-1.40
2019-02-14T06:52:38.095Z,-1.40
2019-02-14T06:55:07.832Z,-1.40
2019-02-14T06:57:36.787Z,-1.40
2019-02-14T07:00:16.011Z,-1.40
2019-02-14T07:02:44.579Z,-1.40
2019-02-14T07:05:13.272Z,-1.40
2019-02-14T07:07:41.842Z,-1.30
2019-02-14T07:10:11.545Z,-1.30
2019-02-14T07:12:40.190Z,-1.10
2019-02-14T07:15:11.274Z,-1.10
2019-02-14T07:17:39.854Z,-0.90
2019-02-14T07:20:11.510Z,-0.90
2019-02-14T07:22:40.157Z,-0.90
2019-02-14T07:25:11.191Z,-0.90
2019-02-14T07:27:39.766Z,-0.80
2019-02-14T07:30:11.633Z,-0.70
2019-02-14T07:32:40.176Z,-0.60
2019-02-14T07:35:10.187Z,-0.30
2019-02-14T07:37:38.742Z,-0.40
2019-02-14T07:40:10.458Z,-0.50
2019-02-14T07:42:38.925Z,-0.50
2019-02-14T07:45:13.232Z,-0.40
2019-02-14T07:47:41.876Z,-0.20
2019-02-14T07:50:12.006Z,-0.20
2019-02-14T07:52:40.889Z,-0.20
2019-02-14T07:55:11.909Z,-0.20
2019-02-14T07:57:40.820Z,-0.20
2019-02-14T08:00:19.826Z,0.00
2019-02-14T08:02:48.374Z,0.10
2019-02-14T08:05:16.959Z,0.40
2019-02-14T08:07:45.491Z,0.60
2019-02-14T08:10:16.089Z,0.90
2019-02-14T08:12:44.622Z,1.20
2019-02-14T08:15:14.631Z,1.50
2019-02-14T08:17:43.494Z,1.70
2019-02-14T08:20:17.149Z,1.60
2019-02-14T08:22:45.693Z,1.80
2019-02-14T08:25:14.426Z,1.50
2019-02-14T08:27:42.972Z,1.80
2019-02-14T08:30:19.232Z,2.00
2019-02-14T08:32:47.781Z,2.00
2019-02-14T08:35:16.348Z,2.20
2019-02-14T08:37:46.017Z,2.30
2019-02-14T08:40:30.629Z,2.50
2019-02-14T08:42:59.165Z,2.60
2019-02-14T08:45:28.092Z,2.90
2019-02-14T08:47:56.628Z,3.20
2019-02-14T08:50:25.173Z,3.50
2019-02-14T08:52:53.751Z,3.60
2019-02-14T08:55:22.279Z,3.50
2019-02-14T08:57:50.847Z,3.40
2019-02-14T09:00:19.986Z,3.40
2019-02-14T09:02:48.545Z,3.00
2019-02-14T09:05:17.083Z,3.10
2019-02-14T09:07:53.863Z,3.00
2019-02-14T09:10:16.863Z,3.30
2019-02-14T09:12:45.434Z,3.40
2019-02-14T09:15:15.012Z,3.70
2019-02-14T09:17:43.714Z,4.10
2019-02-14T09:20:17.467Z,4.50
2019-02-14T09:22:46.430Z,4.50
2019-02-14T09:25:15.326Z,4.20
2019-02-14T09:27:43.883Z,4.20
2019-02-14T09:30:13.863Z,4.20
2019-02-14T09:32:42.498Z,4.60
2019-02-14T09:35:11.113Z,4.90
2019-02-14T09:37:39.691Z,5.10
2019-02-14T09:40:18.640Z,5.00
2019-02-14T09:42:47.218Z,5.10
2019-02-14T09:45:15.986Z,5.50
2019-02-14T09:47:44.935Z,5.60
2019-02-14T09:50:14.731Z,5.80
2019-02-14T09:52:43.490Z,6.00
2019-02-14T09:55:13.199Z,5.50
2019-02-14T09:57:41.893Z,5.50
2019-02-14T10:00:15.659Z,5.60
2019-02-14T10:02:44.213Z,5.70
2019-02-14T10:05:13.249Z,5.70
2019-02-14T10:07:42.018Z,5.40
2019-02-14T10:10:13.892Z,5.40
2019-02-14T10:12:42.432Z,5.50
2019-02-14T10:15:11.336Z,5.50
2019-02-14T10:17:39.871Z,5.60
2019-02-14T10:20:11.522Z,6.00
2019-02-14T10:22:40.056Z,6.30
2019-02-14T10:25:08.695Z,6.30
2019-02-14T10:27:37.227Z,6.30
2019-02-14T10:30:08.875Z,6.40
2019-02-14T10:32:37.406Z,6.60
2019-02-14T10:35:06.207Z,6.80
2019-02-14T10:37:34.752Z,6.80
2019-02-14T10:40:03.890Z,6.90
2019-02-14T10:42:32.360Z,6.50
2019-02-14T10:45:00.939Z,6.60
2019-02-14T10:47:29.462Z,6.80
2019-02-14T10:49:57.994Z,6.60
2019-02-14T10:52:26.559Z,6.70
2019-02-14T10:54:55.096Z,6.90
2019-02-14T10:57:23.731Z,7.30
2019-02-14T10:59:52.261Z,7.50
2019-02-14T11:02:20.892Z,7.60
2019-02-14T11:04:49.423Z,7.60
2019-02-14T11:07:18.054Z,7.80
2019-02-14T11:09:46.600Z,8.20
2019-02-14T11:12:15.167Z,8.30
2019-02-14T11:14:43.998Z,8.70
2019-02-14T11:17:12.575Z,8.90
2019-02-14T11:19:41.107Z,8.90
2019-02-14T11:22:09.679Z,8.90
2019-02-14T11:24:38.298Z,9.00
2019-02-14T11:27:06.879Z,9.30
2019-02-14T11:29:35.415Z,9.50
2019-02-14T11:32:04.044Z,9.20
2019-02-14T11:34:32.580Z,9.30
2019-02-14T11:37:01.436Z,9.30
2019-02-14T11:39:29.979Z,9.10
2019-02-14T11:41:58.518Z,9.30
2019-02-14T11:44:27.084Z,9.30
2019-02-14T11:46:55.615Z,9.40
2019-02-14T11:49:24.184Z,9.50
2019-02-14T11:51:52.727Z,9.40
2019-02-14T11:54:21.287Z,9.30
2019-02-14T11:56:49.829Z,9.30
2019-02-14T11:59:18.400Z,9.20
2019-02-14T12:01:54.991Z,9.40
2019-02-14T12:04:17.163Z,9.20
2019-02-14T12:06:45.772Z,9.10
2019-02-14T12:09:14.371Z,8.80
2019-02-14T12:11:42.962Z,8.60
2019-02-14T12:14:11.539Z,8.80
2019-02-14T12:16:40.088Z,9.00
2019-02-14T12:19:08.659Z,9.10
2019-02-14T12:21:37.207Z,9.10
2019-02-14T12:24:05.787Z,8.80
2019-02-14T12:26:34.320Z,8.60
2019-02-14T12:29:02.887Z,8.80
2019-02-14T12:31:31.423Z,9.20
2019-02-14T12:33:59.979Z,9.20
2019-02-14T12:36:28.552Z,8.80
2019-02-14T12:38:57.078Z,9.10
2019-02-14T12:41:26.178Z,9.50
2019-02-14T12:43:54.751Z,9.50
2019-02-14T12:46:23.319Z,9.40
2019-02-14T12:48:51.860Z,9.30
2019-02-14T12:51:20.481Z,9.40
2019-02-14T12:53:49.016Z,9.40
2019-02-14T12:56:17.583Z,9.20
2019-02-14T12:58:46.130Z,8.80
2019-02-14T13:01:14.691Z,8.70
2019-02-14T13:03:43.227Z,9.10
2019-02-14T13:06:11.787Z,8.70
2019-02-14T13:08:40.333Z,8.50
2019-02-14T13:11:08.895Z,8.40
2019-02-14T13:13:37.454Z,8.40
2019-02-14T13:16:06.151Z,8.40
2019-02-14T13:18:34.682Z,8.60
2019-02-14T13:21:03.257Z,8.50
2019-02-14T13:23:32.157Z,8.80
2019-02-14T13:26:00.723Z,8.70
2019-02-14T13:28:29.268Z,8.40
2019-02-14T13:30:58.306Z,8.50
2019-02-14T13:33:26.856Z,8.80
2019-02-14T13:35:55.455Z,9.10
2019-02-14T13:38:23.996Z,9.10
2019-02-14T13:40:54.590Z,9.70
2019-02-14T13:43:23.158Z,9.80
2019-02-14T13:45:51.696Z,9.40
2019-02-14T13:48:20.260Z,9.40
2019-02-14T13:50:48.808Z,9.60
2019-02-14T13:53:17.368Z,9.50
2019-02-14T13:55:45.907Z,9.80
2019-02-14T13:58:14.474Z,9.80
2019-02-14T14:00:43.019Z,10.10
2019-02-14T14:03:11.582Z,9.80
2019-02-14T14:05:40.191Z,9.80
2019-02-14T14:08:08.759Z,10.10
2019-02-14T14:10:37.287Z,9.90
2019-02-14T14:13:06.128Z,9.90
2019-02-14T14:15:34.677Z,10.00
2019-02-14T14:18:03.320Z,10.00
2019-02-14T14:20:31.868Z,9.90
2019-02-14T14:23:00.431Z,9.60
2019-02-14T14:25:28.974Z,9.50
2019-02-14T14:27:57.511Z,9.60
2019-02-14T14:30:26.077Z,10.00
2019-02-14T14:32:54.875Z,9.80
2019-02-14T14:35:23.442Z,9.70
2019-02-14T14:37:52.047Z,9.50
2019-02-14T14:40:20.824Z,9.50
2019-02-14T14:42:51.005Z,9.40
2019-02-14T14:45:24.744Z,9.50
2019-02-14T14:47:53.278Z,9.60
2019-02-14T14:50:21.845Z,9.60
2019-02-14T14:52:50.383Z,9.40
2019-02-14T14:55:18.955Z,9.40
2019-02-14T14:57:47.552Z,9.60
2019-02-14T15:00:16.431Z,9.70
2019-02-14T15:02:44.979Z,9.60
2019-02-14T15:05:13.613Z,9.50
2019-02-14T15:07:42.155Z,9.60
2019-02-14T15:10:10.731Z,9.40
2019-02-14T15:12:39.303Z,9.50
2019-02-14T15:15:08.507Z,9.40
2019-02-14T15:17:37.047Z,9.60
2019-02-14T15:20:08.651Z,9.50
2019-02-14T15:22:37.189Z,9.50
2019-02-14T15:25:06.663Z,9.40
2019-02-14T15:27:35.229Z,9.40
2019-02-14T15:30:04.608Z,9.30
2019-02-14T15:32:33.176Z,9.20
2019-02-14T15:35:01.714Z,9.20
2019-02-14T15:37:30.275Z,9.30
2019-02-14T15:40:08.656Z,9.30
2019-02-14T15:42:29.376Z,9.30
2019-02-14T15:44:57.916Z,9.40
2019-02-14T15:47:26.478Z,9.50
2019-02-14T15:49:55.022Z,9.30
2019-02-14T15:52:23.588Z,9.20
2019-02-14T15:54:52.126Z,9.10
2019-02-14T15:57:20.698Z,9.10
2019-02-14T15:59:49.234Z,9.10
2019-02-14T16:02:17.804Z,8.90
2019-02-14T16:04:46.344Z,8.80
2019-02-14T16:07:15.341Z,8.70
2019-02-14T16:09:45.099Z,8.60
2019-02-14T16:12:13.667Z,8.50
2019-02-14T16:14:42.836Z,8.50
2019-02-14T16:17:13.706Z,8.40
2019-02-14T16:19:42.475Z,8.30
2019-02-14T16:22:11.055Z,8.20
2019-02-14T16:24:41.283Z,8.00
2019-02-14T16:27:09.828Z,7.90
2019-02-14T16:29:38.367Z,7.80
2019-02-14T16:32:06.907Z,7.60
2019-02-14T16:34:35.476Z,7.60
2019-02-14T16:37:04.975Z,7.50
2019-02-14T16:39:33.636Z,7.40
2019-02-14T16:42:02.158Z,7.30
2019-02-14T16:44:30.723Z,7.20
2019-02-14T16:46:59.261Z,7.30
2019-02-14T16:49:27.824Z,7.30
2019-02-14T16:51:56.362Z,7.20
2019-02-14T16:54:24.939Z,6.90
2019-02-14T16:56:53.474Z,6.70
2019-02-14T16:59:22.056Z,6.70
2019-02-14T17:01:50.597Z,6.60
2019-02-14T17:04:19.167Z,6.70
2019-02-14T17:06:47.701Z,6.50
2019-02-14T17:09:16.201Z,6.40
2019-02-14T17:11:45.039Z,6.40
2019-02-14T17:14:13.530Z,6.60
2019-02-14T17:16:42.058Z,6.60
2019-02-14T17:19:10.553Z,6.20
2019-02-14T17:21:39.096Z,6.20
2019-02-14T17:24:07.659Z,6.00
2019-02-14T17:26:36.199Z,5.70
2019-02-14T17:29:05.116Z,5.60
2019-02-14T17:31:33.681Z,5.40
2019-02-14T17:34:02.158Z,5.40
2019-02-14T17:36:30.713Z,5.30
2019-02-14T17:38:59.319Z,5.20
2019-02-14T17:41:27.987Z,5.10
2019-02-14T17:43:56.798Z,5.00
2019-02-14T17:46:25.366Z,5.00
2019-02-14T17:48:53.911Z,4.90
2019-02-14T17:51:22.482Z,4.80
2019-02-14T17:53:51.036Z,5.00
2019-02-14T17:56:19.599Z,5.40
2019-02-14T17:58:51.111Z,5.20
2019-02-14T18:01:19.678Z,5.20
2019-02-14T18:03:48.217Z,5.00
2019-02-14T18:06:16.781Z,5.00
2019-02-14T18:08:47.261Z,5.00
2019-02-14T18:11:15.532Z,5.10
2019-02-14T18:13:44.375Z,5.10
2019-02-14T18:16:12.949Z,5.10
2019-02-14T18:18:41.494Z,4.90
2019-02-14T18:21:10.084Z,4.80
2019-02-14T18:23:38.624Z,4.80
2019-02-14T18:26:07.261Z,4.80
2019-02-14T18:28:35.803Z,4.70
2019-02-14T18:31:04.383Z,4.70
2019-02-14T18:33:32.936Z,4.60
2019-02-14T18:36:01.651Z,4.60
2019-02-14T18:38:30.483Z,4.20
2019-02-14T18:41:04.092Z,4.20
2019-02-14T18:43:29.227Z,4.10
2019-02-14T18:45:57.775Z,3.90
2019-02-14T18:48:26.318Z,3.80
2019-02-14T18:50:54.888Z,3.70
2019-02-14T18:53:23.438Z,3.60
2019-02-14T18:55:51.934Z,3.60
2019-02-14T18:58:26.316Z,3.70
2019-02-14T19:00:50.708Z,3.50
2019-02-14T19:03:19.251Z,3.20
2019-02-14T19:05:47.917Z,3.10
2019-02-14T19:08:16.494Z,3.00
2019-02-14T19:10:45.320Z,3.00
2019-02-14T19:13:13.908Z,3.20
2019-02-14T19:15:42.448Z,3.30
2019-02-14T19:18:11.079Z,3.30
2019-02-14T19:20:39.851Z,3.40
2019-02-14T19:23:08.439Z,3.20
2019-02-14T19:25:36.990Z,3.40
2019-02-14T19:28:06.004Z,3.20
2019-02-14T19:30:34.543Z,3.00
2019-02-14T19:33:03.305Z,2.90
2019-02-14T19:35:31.887Z,3.00
2019-02-14T19:38:00.447Z,3.00
2019-02-14T19:40:29.013Z,3.10
2019-02-14T19:42:57.554Z,3.10
2019-02-14T19:45:36.033Z,3.00
2019-02-14T19:47:56.391Z,2.90
2019-02-14T19:50:24.957Z,2.70
2019-02-14T19:52:53.488Z,3.00
2019-02-14T19:55:22.060Z,2.90
2019-02-14T19:57:50.604Z,2.90
2019-02-14T20:00:19.240Z,2.80
2019-02-14T20:02:47.782Z,2.70
2019-02-14T20:05:16.354Z,2.60
2019-02-14T20:07:44.892Z,2.50
2019-02-14T20:10:14.471Z,2.60
2019-02-14T20:12:43.087Z,2.70
2019-02-14T20:15:17.658Z,2.70
2019-02-14T20:17:46.264Z,2.90
2019-02-14T20:20:14.822Z,2.70
2019-02-14T20:22:43.430Z,2.50
2019-02-14T20:25:20.423Z,2.40
2019-02-14T20:27:50.037Z,2.30
2019-02-14T20:30:18.826Z,2.20
2019-02-14T20:32:47.365Z,2.10
2019-02-14T20:35:15.909Z,2.10
2019-02-14T20:37:44.483Z,2.10
2019-02-14T20:40:13.090Z,2.50
2019-02-14T20:42:41.899Z,2.30
2019-02-14T20:45:12.951Z,2.00
2019-02-14T20:47:41.590Z,1.90
2019-02-14T20:50:15.902Z,1.90
2019-02-14T20:52:44.485Z,1.80
2019-02-14T20:55:16.115Z,1.90
2019-02-14T20:57:44.956Z,1.90
2019-02-14T21:00:16.971Z,1.90
2019-02-14T21:02:45.607Z,1.80
2019-02-14T21:05:14.220Z,1.80
2019-02-14T21:07:42.782Z,1.80
2019-02-14T21:10:11.244Z,1.80
2019-02-14T21:12:39.889Z,1.80
2019-02-14T21:15:09.361Z,1.70
2019-02-14T21:17:37.931Z,1.70
2019-02-14T21:20:11.649Z,1.70
2019-02-14T21:22:40.270Z,1.70
2019-02-14T21:25:09.352Z,1.60
2019-02-14T21:27:37.937Z,1.60
2019-02-14T21:30:18.388Z,1.60
2019-02-14T21:32:47.130Z,1.50
2019-02-14T21:35:15.851Z,1.60
2019-02-14T21:37:44.510Z,1.50
2019-02-14T21:40:19.381Z,1.40
2019-02-14T21:42:47.973Z,1.30
2019-02-14T21:45:17.451Z,1.40
2019-02-14T21:47:46.074Z,1.30
2019-02-14T21:50:15.830Z,1.30
2019-02-14T21:52:44.600Z,1.30
2019-02-14T21:55:14.321Z,1.20
2019-02-14T21:57:42.986Z,1.20
2019-02-14T22:00:28.828Z,1.50
2019-02-14T22:02:57.389Z,1.50
2019-02-14T22:05:26.671Z,1.70
2019-02-14T22:07:55.481Z,1.70
2019-02-14T22:10:24.117Z,1.60
2019-02-14T22:12:52.698Z,1.60
2019-02-14T22:15:23.584Z,1.40
2019-02-14T22:17:52.108Z,1.20
2019-02-14T22:20:20.669Z,1.20
2019-02-14T22:22:49.203Z,1.30
2019-02-14T22:25:17.834Z,1.50
2019-02-14T22:27:46.304Z,1.30
2019-02-14T22:30:18.675Z,1.20
2019-02-14T22:32:47.266Z,1.30
2019-02-14T22:35:15.875Z,1.20
2019-02-14T22:37:44.523Z,1.10
2019-02-14T22:40:14.008Z,1.00
2019-02-14T22:42:47.330Z,1.00
2019-02-14T22:45:14.349Z,1.00
2019-02-14T22:47:44.355Z,1.00
2019-02-14T22:50:13.443Z,1.10
2019-02-14T22:52:42.087Z,1.00
2019-02-14T22:55:14.248Z,0.90
2019-02-14T22:57:42.831Z,0.90
2019-02-14T23:00:17.114Z,0.90
2019-02-14T23:02:45.738Z,0.90
2019-02-14T23:05:14.282Z,0.90
2019-02-14T23:07:42.879Z,0.80
2019-02-14T23:10:11.420Z,0.80
2019-02-14T23:12:40.275Z,0.70
2019-02-14T23:15:08.885Z,0.80
2019-02-14T23:17:38.935Z,0.70
2019-02-14T23:20:07.595Z,0.70
2019-02-14T23:22:36.158Z,0.70
2019-02-14T23:25:05.744Z,0.70
2019-02-14T23:27:34.312Z,0.70
2019-02-14T23:30:02.924Z,0.90
2019-02-14T23:32:31.471Z,0.80
2019-02-14T23:35:00.387Z,0.60
2019-02-14T23:37:28.912Z,0.60
2019-02-14T23:39:57.483Z,0.50
2019-02-14T23:42:26.023Z,0.40
2019-02-14T23:44:54.595Z,0.30
2019-02-14T23:47:23.140Z,0.30
2019-02-14T23:49:51.712Z,0.30
2019-02-14T23:52:20.269Z,0.30
2019-02-14T23:54:48.830Z,0.40
2019-02-14T23:57:17.379Z,0.50
2019-02-14T23:59:45.949Z,0.50
